Harrold, South Dakota
Current Conditions -  °F | °C
As of 7:53 PM on Thursday 20 Nov 2014 (Local Time) from KPIR Reporting Station
Clear Clear  
Wind Chill:   Ceiling: Unl
Heat Index: 19°   Visibility: 10mi
Dew Point: 15°   Wind: 17mph
Humidity: 85%   Direction: 130°SE
Pressure: 30.03"   Gusts: NA
Location:  44.52°N, 99.74°W
Report Text: KPIR 210153Z AUTO 13015KT 10SM CLR M07/M09 A3003 RMK AO2 SLP197 T10721094
Loading
Personal Weather Stations






























Interactive Weather Map New forecast layout! Learn more

10-Day Weather Forecast

Advertisements
Track Severe Weather on mobile